Drake Field Fayetteville US
ICAO: KFYV
IATA: FYV
Category: Medium
Scheduled Services: No

Elevation: 1251 ft
TransAlt. 18000 ft.

Airport Communications:
RAZORBACK APP/DEP:121
ATIS:133.1
CTAF:128
GND:121.8
JONESBORO RDO:122.3
TWR:128
UNICOM:122.95

KFYV Zoom In..

If you have problems with the map follow the link
https://www.worldairports.se/pages/airport.php?
ICAO=KFYV

Runways:

(A) RW 16 length 6005 ft width 100 ft
LOC 111.90 / hdg 164

(B) RW 34 length 6005 ft width 100 ft
LOC 111.90 / hdg 344

Location; KFYV
Day. 22 / Time. 12.53 Zulu
* Altimeter: 30.16
* Temperature: 00° c. 32°f.
* Wind from: 160° Speed 10 kn.
Dewpoint: -03° c.
Visibility: 10 Statute Miles.
Clouds: Broken 5500 ft.
Clouds: Overcast 7000 ft.

KFYV 221253Z 16010KT 10SM UP BKN055 OVC070 00/M03 A3016 RMK AO2 SNB10E22 SLP223 P0002 T00001033


Wind From 160°
Speed 10 kn.

 
 
jpsmedia worldairports.se 2020   terms of use